Time;durP1;ratioP1;P1;durP2;ratioP2;P2;SDS_P1;SDS_P2;PMS_P1;PMS_P2;Temp;Humidity;BMP_temperature;BMP_pressure;BME280_temperature;BME280_humidity;BME280_pressure;Samples;Min_cycle;Max_cycle;Signal;HPM_P1;HPM_P2
2023/06/19 00:01:16;;;;;;;13.25;9.73;;;16.10;99.90;;;;;;5051211;28;20041;-64
2023/06/19 00:03:43;;;;;;;14.63;10.73;;;16.10;99.90;;;;;;5049012;28;20408;-64
2023/06/19 00:06:12;;;;;;;13.38;10.02;;;16.10;99.90;;;;;;5068604;28;20041;-65
2023/06/19 00:08:43;;;;;;;14.80;9.93;;;16.10;99.90;;;;;;5083141;28;20227;-66
2023/06/19 00:11:11;;;;;;;20.13;9.98;;;16.10;99.90;;;;;;5090684;28;20048;-66
2023/06/19 00:13:39;;;;;;;13.98;9.85;;;16.00;99.90;;;;;;5073438;28;20493;-61
2023/06/19 00:16:07;;;;;;;15.13;10.30;;;16.00;99.90;;;;;;5068691;28;20044;-60
2023/06/19 00:18:39;;;;;;;15.35;10.57;;;16.00;99.90;;;;;;5052161;28;20052;-61
2023/06/19 00:21:09;;;;;;;17.77;10.82;;;16.00;99.90;;;;;;5051257;28;20092;-60
2023/06/19 00:23:36;;;;;;;15.60;11.52;;;16.00;99.90;;;;;;5059639;28;20503;-60
2023/06/19 00:26:06;;;;;;;14.75;10.65;;;16.00;99.90;;;;;;5071763;28;20044;-60
2023/06/19 00:28:38;;;;;;;16.13;11.70;;;16.00;99.90;;;;;;5062328;28;20056;-67
2023/06/19 00:31:06;;;;;;;15.13;10.77;;;15.90;99.90;;;;;;5051809;28;20048;-62
2023/06/19 00:33:34;;;;;;;15.93;11.15;;;15.90;99.90;;;;;;5069712;28;20056;-69
2023/06/19 00:36:02;;;;;;;18.27;12.57;;;15.90;99.90;;;;;;5062992;28;20073;-61
2023/06/19 00:38:30;;;;;;;18.05;12.68;;;15.80;99.90;;;;;;5048274;28;20052;-62
2023/06/19 00:40:58;;;;;;;18.50;13.02;;;15.80;99.90;;;;;;5090033;28;20040;-60
2023/06/19 00:43:25;;;;;;;21.42;13.65;;;15.80;99.90;;;;;;5072494;28;20040;-63
2023/06/19 00:45:55;;;;;;;22.42;13.80;;;15.80;99.90;;;;;;5070055;28;20056;-60
2023/06/19 00:48:23;;;;;;;18.85;14.25;;;15.80;99.90;;;;;;5065611;28;20048;-59
2023/06/19 00:50:51;;;;;;;19.15;13.73;;;15.80;99.90;;;;;;5054334;28;20060;-59
2023/06/19 00:53:20;;;;;;;21.92;12.70;;;15.80;99.90;;;;;;5056430;28;20500;-60
2023/06/19 00:55:51;;;;;;;16.67;13.05;;;15.80;99.90;;;;;;5070491;28;20049;-59
2023/06/19 00:58:20;;;;;;;18.83;13.00;;;15.90;99.90;;;;;;5078897;28;20051;-59
2023/06/19 01:00:48;;;;;;;19.40;13.43;;;15.90;99.90;;;;;;5089115;28;20052;-59
2023/06/19 01:03:30;;;;;;;24.98;14.25;;;15.90;99.90;;;;;;5053657;28;20359;-60
2023/06/19 01:06:00;;;;;;;22.25;13.68;;;16.00;99.90;;;;;;5064928;28;20500;-61
2023/06/19 01:08:47;;;;;;;;;;;15.90;99.90;;;;;;5079688;28;20044;-61
2023/06/19 01:11:19;;;;;;;17.17;11.48;;;15.90;99.90;;;;;;5085352;28;19920;-60
2023/06/19 01:14:02;;;;;;;21.13;12.40;;;15.80;99.90;;;;;;5067508;28;20451;-60
2023/06/19 01:16:31;;;;;;;20.98;13.32;;;15.70;99.90;;;;;;5057997;28;20052;-60
2023/06/19 01:18:59;;;;;;;22.98;13.57;;;15.60;99.90;;;;;;5058858;28;20048;-60
2023/06/19 01:21:27;;;;;;;24.98;14.02;;;15.60;99.90;;;;;;5051183;28;20045;-61
2023/06/19 01:23:55;;;;;;;24.70;14.13;;;15.60;99.90;;;;;;5058943;28;20040;-61
2023/06/19 01:26:27;;;;;;;26.38;15.95;;;15.60;99.90;;;;;;5056070;28;20048;-66
2023/06/19 01:28:58;;;;;;;28.02;15.50;;;15.60;99.90;;;;;;5066137;28;20044;-64
2023/06/19 01:31:40;;;;;;;24.13;14.88;;;15.60;99.90;;;;;;5070773;28;20040;-63
2023/06/19 01:34:11;;;;;;;22.60;14.02;;;15.50;99.90;;;;;;5050726;28;20041;-61
2023/06/19 01:36:39;;;;;;;25.23;14.57;;;15.50;99.90;;;;;;5056991;28;20052;-61
2023/06/19 01:39:08;;;;;;;24.13;14.57;;;15.50;99.90;;;;;;5080205;28;20066;-61
2023/06/19 01:41:38;;;;;;;23.67;13.88;;;15.50;99.90;;;;;;5093153;28;20064;-66
2023/06/19 01:44:07;;;;;;;21.73;14.65;;;15.50;99.90;;;;;;5058637;28;20056;-67
2023/06/19 01:46:35;;;;;;;29.33;15.45;;;15.40;99.90;;;;;;5059575;28;20040;-67
2023/06/19 01:49:08;;;;;;;25.17;15.43;;;15.40;99.90;;;;;;5070762;28;20045;-66
2023/06/19 01:51:36;;;;;;;27.58;16.13;;;15.30;99.90;;;;;;5072720;28;20067;-60
2023/06/19 01:54:04;;;;;;;26.95;15.95;;;15.30;99.90;;;;;;5054861;28;20044;-60
2023/06/19 01:56:32;;;;;;;26.75;16.45;;;15.20;99.90;;;;;;5070905;28;20048;-60
2023/06/19 01:59:00;;;;;;;29.20;17.08;;;15.20;99.90;;;;;;5069952;28;20067;-60
2023/06/19 02:01:28;;;;;;;29.02;17.30;;;15.20;99.90;;;;;;5049247;28;20052;-67
2023/06/19 02:03:56;;;;;;;29.83;17.77;;;15.20;99.90;;;;;;5060661;28;20393;-65
2023/06/19 02:06:24;;;;;;;32.17;18.17;;;15.10;99.90;;;;;;5056117;28;20053;-66
2023/06/19 02:08:53;;;;;;;28.30;17.45;;;15.10;99.90;;;;;;5078515;28;20464;-64
2023/06/19 02:11:21;;;;;;;32.15;17.95;;;15.00;99.90;;;;;;5066708;28;20056;-68
2023/06/19 02:13:48;;;;;;;30.63;18.85;;;15.00;99.90;;;;;;5066112;28;20048;-67
2023/06/19 02:16:16;;;;;;;31.15;18.67;;;14.90;99.90;;;;;;5072088;28;20498;-67
2023/06/19 02:18:44;;;;;;;30.10;18.80;;;15.00;99.90;;;;;;5072116;28;20059;-66
2023/06/19 02:21:12;;;;;;;31.73;18.23;;;14.90;99.90;;;;;;5071025;28;20428;-67
2023/06/19 02:23:39;;;;;;;31.45;18.40;;;14.90;99.90;;;;;;5071976;28;20053;-67
2023/06/19 02:26:07;;;;;;;31.20;18.88;;;;;;;;;;5068491;28;20044;-67
2023/06/19 02:28:35;;;;;;;34.03;19.33;;;14.90;99.90;;;;;;5040873;28;20048;-67
2023/06/19 02:31:03;;;;;;;32.70;18.95;;;14.90;99.90;;;;;;5050688;28;20045;-66
2023/06/19 02:33:32;;;;;;;35.63;17.92;;;14.90;99.90;;;;;;5068398;28;20037;-65
2023/06/19 02:36:00;;;;;;;29.17;18.40;;;14.90;99.90;;;;;;5070997;28;20048;-67
2023/06/19 02:38:29;;;;;;;33.00;20.10;;;14.80;99.90;;;;;;5057741;28;20068;-68
2023/06/19 02:40:57;;;;;;;33.63;19.27;;;14.80;99.90;;;;;;5069607;28;20396;-67
2023/06/19 02:43:25;;;;;;;34.47;20.13;;;14.80;99.90;;;;;;5070319;28;20064;-67
2023/06/19 02:45:52;;;;;;;31.10;18.23;;;14.80;99.90;;;;;;5071703;28;20067;-66
2023/06/19 02:48:20;;;;;;;30.90;18.70;;;14.90;99.90;;;;;;5070839;28;20602;-67
2023/06/19 02:50:48;;;;;;;29.45;18.42;;;14.90;99.90;;;;;;5071808;28;20056;-66
2023/06/19 02:53:16;;;;;;;31.08;17.63;;;14.90;99.90;;;;;;5071713;28;20064;-67
2023/06/19 02:55:45;;;;;;;30.63;18.40;;;14.90;99.90;;;;;;5071692;28;20056;-67
2023/06/19 02:58:13;;;;;;;30.85;17.75;;;14.80;99.90;;;;;;5071559;28;20037;-67
2023/06/19 03:00:41;;;;;;;34.47;19.02;;;14.80;99.90;;;;;;5060769;28;20365;-66
2023/06/19 03:03:08;;;;;;;31.75;18.00;;;14.80;99.90;;;;;;5050977;28;20519;-67
2023/06/19 03:05:36;;;;;;;26.90;16.85;;;14.80;99.90;;;;;;5051476;28;20064;-67
2023/06/19 03:08:04;;;;;;;35.40;17.30;;;14.80;99.90;;;;;;5055610;28;20040;-65
2023/06/19 03:10:31;;;;;;;27.67;16.08;;;14.70;99.90;;;;;;5090584;28;20048;-61
2023/06/19 03:12:59;;;;;;;27.90;16.00;;;14.70;99.90;;;;;;5061523;28;20044;-61
2023/06/19 03:15:27;;;;;;;29.25;16.77;;;14.70;99.90;;;;;;5069714;28;20488;-61
2023/06/19 03:17:55;;;;;;;28.05;15.90;;;14.60;99.90;;;;;;5069578;28;20068;-61
2023/06/19 03:20:25;;;;;;;27.77;16.67;;;14.60;99.90;;;;;;5068625;28;20041;-61
2023/06/19 03:22:57;;;;;;;26.65;16.20;;;14.60;99.90;;;;;;5070216;28;20048;-60
2023/06/19 03:25:26;;;;;;;29.25;16.50;;;14.50;99.90;;;;;;5070111;28;20055;-60
2023/06/19 03:27:54;;;;;;;36.03;17.88;;;14.50;99.90;;;;;;5071224;28;20041;-60
2023/06/19 03:30:22;;;;;;;26.65;16.75;;;14.50;99.90;;;;;;5064516;28;20404;-59
2023/06/19 03:32:52;;;;;;;;;;;14.50;99.90;;;;;;5063680;28;20051;-60
2023/06/19 03:35:36;;;;;;;30.40;15.85;;;14.50;99.90;;;;;;5069765;28;19931;-59
2023/06/19 03:38:04;;;;;;;29.15;15.20;;;14.40;99.90;;;;;;5068604;28;20040;-59
2023/06/19 03:40:31;;;;;;;26.75;15.32;;;14.40;99.90;;;;;;5068248;28;20408;-59
2023/06/19 03:43:05;;;;;;;27.65;14.90;;;14.40;99.90;;;;;;5052735;28;20047;-60
2023/06/19 03:45:33;;;;;;;28.00;14.93;;;14.50;99.90;;;;;;5069720;28;20060;-62
2023/06/19 03:48:01;;;;;;;26.52;15.20;;;14.50;99.90;;;;;;5069879;28;20503;-59
2023/06/19 03:50:29;;;;;;;27.15;14.82;;;14.50;99.90;;;;;;5069831;28;20063;-61
2023/06/19 03:52:57;;;;;;;24.55;14.02;;;14.50;99.90;;;;;;5069132;28;20044;-60
2023/06/19 03:55:25;;;;;;;22.58;13.50;;;14.50;99.90;;;;;;5070086;28;20506;-66
2023/06/19 03:57:53;;;;;;;30.05;14.60;;;14.50;99.90;;;;;;5070455;28;20049;-62
2023/06/19 04:00:22;;;;;;;25.35;14.18;;;14.50;99.90;;;;;;5068225;28;20488;-63
2023/06/19 04:02:51;;;;;;;27.00;14.20;;;14.50;99.90;;;;;;5069396;28;20048;-61
2023/06/19 04:05:22;;;;;;;27.33;14.27;;;14.50;99.90;;;;;;5068450;28;20526;-66
2023/06/19 04:07:49;;;;;;;26.45;14.73;;;14.50;99.90;;;;;;5069764;28;20055;-64
2023/06/19 04:10:17;;;;;;;24.77;14.55;;;14.50;99.90;;;;;;5089235;28;20049;-59
2023/06/19 04:12:46;;;;;;;24.67;13.68;;;14.40;99.90;;;;;;5075433;28;20059;-67
2023/06/19 04:15:13;;;;;;;22.45;13.75;;;14.40;99.90;;;;;;5069414;28;20392;-66
2023/06/19 04:17:41;;;;;;;30.88;14.77;;;14.50;99.90;;;;;;5069612;28;20057;-68
2023/06/19 04:20:12;;;;;;;26.13;13.48;;;14.40;99.90;;;;;;5073315;28;20048;-65
2023/06/19 04:22:41;;;;;;;28.70;13.93;;;14.40;99.90;;;;;;5063232;28;20511;-65
2023/06/19 04:25:10;;;;;;;24.13;13.75;;;14.40;99.90;;;;;;5055469;28;20041;-67
2023/06/19 04:27:38;;;;;;;25.25;14.35;;;14.40;99.90;;;;;;5054372;28;20045;-67
2023/06/19 04:30:06;;;;;;;24.95;14.20;;;14.40;99.90;;;;;;5061724;28;20052;-67
2023/06/19 04:32:40;;;;;;;24.70;13.43;;;14.40;99.90;;;;;;5068424;28;20052;-66
2023/06/19 04:35:09;;;;;;;23.38;13.48;;;14.30;99.90;;;;;;5069577;28;20079;-67
2023/06/19 04:37:37;;;;;;;25.15;13.48;;;14.30;99.90;;;;;;5074217;28;20052;-66
2023/06/19 04:40:07;;;;;;;26.33;14.55;;;14.30;99.90;;;;;;5085804;28;20040;-66
2023/06/19 04:42:34;;;;;;;32.00;14.90;;;14.30;99.90;;;;;;5069305;28;20062;-67
2023/06/19 04:45:02;;;;;;;23.92;13.02;;;14.30;99.90;;;;;;5071915;28;20063;-65
2023/06/19 04:47:30;;;;;;;25.95;13.65;;;14.30;99.90;;;;;;5062687;28;20044;-67
2023/06/19 04:50:18;;;;;;;22.30;12.95;;;14.30;99.90;;;;;;5057023;28;20036;-65
2023/06/19 04:52:45;;;;;;;25.00;13.80;;;14.30;99.90;;;;;;5070386;28;20389;-65
2023/06/19 04:55:13;;;;;;;20.40;12.40;;;14.30;99.90;;;;;;5069335;28;20048;-66
2023/06/19 04:57:40;;;;;;;22.00;12.90;;;14.30;99.90;;;;;;5070195;28;20041;-63
2023/06/19 05:00:14;;;;;;;21.40;12.65;;;14.30;99.90;;;;;;5063146;28;20055;-67
2023/06/19 05:02:46;;;;;;;24.58;13.60;;;14.30;99.90;;;;;;5053264;28;20037;-60
2023/06/19 05:05:15;;;;;;;21.70;12.27;;;14.30;99.90;;;;;;5047282;28;20052;-64
2023/06/19 05:07:45;;;;;;;26.60;12.70;;;14.30;99.90;;;;;;5053496;28;20535;-64
2023/06/19 05:10:12;;;;;;;20.95;12.15;;;14.30;99.90;;;;;;5066906;28;20146;-61
2023/06/19 05:12:40;;;;;;;23.58;13.02;;;14.40;99.90;;;;;;5065032;28;20059;-61
2023/06/19 05:15:08;;;;;;;26.95;13.45;;;14.40;99.90;;;;;;5065782;28;20060;-61
2023/06/19 05:17:38;;;;;;;21.30;11.82;;;14.40;99.90;;;;;;5051878;28;20264;-62
2023/06/19 05:20:07;;;;;;;27.58;14.05;;;14.40;99.90;;;;;;5065364;28;20052;-64
2023/06/19 05:22:36;;;;;;;23.70;13.88;;;14.40;99.90;;;;;;5065218;28;20048;-60
2023/06/19 05:25:04;;;;;;;28.52;13.95;;;14.40;99.90;;;;;;5065526;28;20399;-62
2023/06/19 05:27:32;;;;;;;22.27;13.27;;;14.40;99.90;;;;;;5068380;28;20055;-61
2023/06/19 05:30:01;;;;;;;25.45;13.55;;;14.50;99.90;;;;;;5066988;28;20033;-63
2023/06/19 05:32:28;;;;;;;21.75;13.82;;;14.50;99.90;;;;;;5051944;28;20411;-66
2023/06/19 05:34:56;;;;;;;24.58;13.50;;;14.50;99.90;;;;;;5050007;28;20049;-63
2023/06/19 05:37:27;;;;;;;24.20;12.85;;;14.50;99.90;;;;;;5049581;28;20056;-63
2023/06/19 05:39:55;;;;;;;;;;;14.50;99.90;;;;;;5079885;28;20040;-61
2023/06/19 05:42:22;;;;;;;20.95;11.45;;;14.60;99.90;;;;;;5065784;28;19921;-65
2023/06/19 05:44:50;;;;;;;27.40;12.35;;;14.60;99.90;;;;;;5069656;28;20056;-60
2023/06/19 05:47:20;;;;;;;25.70;11.32;;;14.60;99.90;;;;;;5062407;28;20385;-59
2023/06/19 05:49:48;;;;;;;;;;;14.60;99.90;;;;;;5045805;28;20045;-60
2023/06/19 05:52:16;;;;;;;21.27;11.82;;;14.70;99.90;;;;;;5057893;28;19920;-59
2023/06/19 05:54:43;;;;;;;22.45;12.45;;;14.70;99.90;;;;;;5055715;28;20045;-59
2023/06/19 05:57:11;;;;;;;21.88;11.98;;;14.70;99.90;;;;;;5051677;28;20049;-59
2023/06/19 05:59:39;;;;;;;22.08;12.23;;;14.70;99.90;;;;;;5061597;28;20044;-59
2023/06/19 06:02:07;;;;;;;19.25;11.50;;;14.80;99.90;;;;;;5063503;28;20053;-60
2023/06/19 06:04:36;;;;;;;22.73;11.55;;;14.90;99.90;;;;;;5055110;28;20480;-60
2023/06/19 06:07:05;;;;;;;23.95;11.80;;;14.80;99.90;;;;;;5048101;28;20061;-60
2023/06/19 06:09:35;;;;;;;28.27;13.82;;;14.90;99.90;;;;;;5068728;28;20484;-59
2023/06/19 06:12:04;;;;;;;25.55;11.68;;;14.90;99.90;;;;;;5062379;28;20052;-59
2023/06/19 06:14:32;;;;;;;20.52;11.10;;;15.00;99.90;;;;;;5057193;28;20037;-60
2023/06/19 06:17:00;;;;;;;20.90;11.25;;;15.00;99.90;;;;;;5051369;28;20049;-61
2023/06/19 06:19:28;;;;;;;23.38;10.80;;;15.00;99.90;;;;;;5060795;28;20052;-63
2023/06/19 06:21:58;;;;;;;22.65;11.95;;;15.10;99.90;;;;;;5065508;28;20048;-61
2023/06/19 06:24:26;;;;;;;20.20;11.35;;;15.10;99.90;;;;;;5043299;28;20040;-65
2023/06/19 06:26:54;;;;;;;19.55;9.73;;;15.20;99.90;;;;;;5051740;28;20063;-62
2023/06/19 06:29:22;;;;;;;21.92;10.07;;;15.20;99.90;;;;;;5050092;28;20047;-61
2023/06/19 06:31:54;;;;;;;24.55;11.63;;;15.20;99.90;;;;;;5054351;28;20040;-60
2023/06/19 06:34:22;;;;;;;20.50;11.35;;;15.30;99.90;;;;;;5048419;28;20049;-62
2023/06/19 06:36:50;;;;;;;23.77;10.65;;;15.40;99.90;;;;;;5044826;28;20045;-62
2023/06/19 06:39:33;;;;;;;21.88;10.90;;;15.40;99.90;;;;;;5052265;28;20048;-61
2023/06/19 06:42:02;;;;;;;20.98;9.43;;;15.50;99.90;;;;;;5049879;28;20492;-60
2023/06/19 06:44:29;;;;;;;22.50;9.73;;;15.60;99.90;;;;;;5068565;28;20040;-65
2023/06/19 06:46:57;;;;;;;28.17;9.93;;;15.60;99.90;;;;;;5046209;28;20068;-62
2023/06/19 06:49:25;;;;;;;17.50;9.70;;;15.70;99.90;;;;;;5051895;28;20041;-65
2023/06/19 06:51:53;;;;;;;22.05;9.15;;;15.70;99.90;;;;;;5045508;28;20053;-70
2023/06/19 06:54:24;;;;;;;17.95;9.85;;;15.80;99.90;;;;;;5064403;28;20052;-67
2023/06/19 06:56:56;;;;;;;15.70;8.93;;;15.80;99.90;;;;;;5066334;28;20052;-67
2023/06/19 06:59:27;;;;;;;17.75;8.55;;;15.90;99.90;;;;;;5067155;28;20040;-69
2023/06/19 07:01:56;;;;;;;17.30;8.20;;;15.90;99.90;;;;;;5066347;28;20056;-63
2023/06/19 07:04:24;;;;;;;14.60;7.78;;;16.00;99.90;;;;;;5054895;28;20209;-69
2023/06/19 07:06:52;;;;;;;19.33;8.75;;;16.00;99.90;;;;;;5046030;28;20899;-60
2023/06/19 07:09:21;;;;;;;19.52;9.30;;;16.10;99.90;;;;;;5076245;28;20044;-60
2023/06/19 07:11:49;;;;;;;18.43;9.13;;;16.20;99.90;;;;;;5087224;28;20055;-60
2023/06/19 07:14:20;;;;;;;17.67;8.45;;;16.20;99.90;;;;;;5066937;28;20043;-61
2023/06/19 07:16:49;;;;;;;18.30;9.23;;;16.30;99.90;;;;;;5048280;28;20075;-60
2023/06/19 07:19:17;;;;;;;16.00;8.07;;;16.30;99.90;;;;;;5056733;28;20063;-60
2023/06/19 07:21:45;;;;;;;17.55;7.63;;;16.30;99.90;;;;;;5058965;28;20400;-61
2023/06/19 07:24:13;;;;;;;20.65;7.60;;;16.40;99.90;;;;;;5065928;28;20044;-61
2023/06/19 07:26:40;;;;;;;13.80;7.28;;;16.50;99.90;;;;;;5064900;28;20045;-61
2023/06/19 07:29:08;;;;;;;12.60;6.68;;;16.50;99.90;;;;;;5067432;28;20094;-61
2023/06/19 07:31:36;;;;;;;12.65;6.95;;;16.60;99.90;;;;;;5056743;28;20037;-62
2023/06/19 07:34:03;;;;;;;14.07;6.28;;;16.70;99.90;;;;;;5061466;28;20061;-66
2023/06/19 07:36:32;;;;;;;15.98;7.15;;;16.80;99.90;;;;;;5056765;28;20056;-63
2023/06/19 07:38:59;;;;;;;14.18;7.03;;;16.90;99.90;;;;;;5064023;28;20531;-66
2023/06/19 07:41:27;;;;;;;14.82;6.50;;;17.00;99.90;;;;;;5061136;28;20052;-62
2023/06/19 07:43:55;;;;;;;13.68;5.88;;;17.20;99.90;;;;;;5055814;28;20044;-65
2023/06/19 07:46:23;;;;;;;12.98;7.00;;;17.30;99.90;;;;;;5046818;28;20056;-66
2023/06/19 07:48:50;;;;;;;11.68;6.13;;;17.30;99.90;;;;;;5049412;28;20040;-61
2023/06/19 07:51:18;;;;;;;13.95;6.18;;;17.40;99.90;;;;;;5054358;28;20052;-61
2023/06/19 07:53:45;;;;;;;11.38;7.20;;;17.40;99.90;;;;;;5074952;28;20051;-65
2023/06/19 07:56:13;;;;;;;12.73;7.55;;;17.50;99.90;;;;;;5062625;28;20664;-61
2023/06/19 07:58:41;;;;;;;12.80;7.63;;;17.50;99.90;;;;;;5048926;28;20049;-61
2023/06/19 08:01:10;;;;;;;15.88;7.30;;;17.60;99.90;;;;;;5055873;28;20055;-61
2023/06/19 08:03:37;;;;;;;15.48;7.10;;;17.70;99.90;;;;;;5060439;28;20249;-62
2023/06/19 08:06:05;;;;;;;17.05;7.28;;;17.70;99.90;;;;;;5056661;28;20049;-61
2023/06/19 08:08:33;;;;;;;12.98;7.20;;;17.80;99.90;;;;;;5064230;28;20044;-59
2023/06/19 08:11:01;;;;;;;13.90;7.57;;;17.80;99.90;;;;;;5053824;28;20037;-60
2023/06/19 08:13:29;;;;;;;12.70;6.82;;;17.90;99.90;;;;;;5074322;28;20039;-60
2023/06/19 08:15:56;;;;;;;10.68;6.63;;;17.90;99.90;;;;;;5067706;28;20404;-61
2023/06/19 08:18:24;;;;;;;11.30;6.88;;;17.90;99.90;;;;;;5049100;28;20037;-62
2023/06/19 08:20:52;;;;;;;13.85;7.32;;;18.00;99.90;;;;;;5059242;28;20040;-61
2023/06/19 08:23:20;;;;;;;11.77;6.45;;;18.00;99.90;;;;;;5060322;28;20041;-70
2023/06/19 08:25:48;;;;;;;13.32;6.68;;;18.10;99.90;;;;;;5049581;28;20061;-65
2023/06/19 08:28:16;;;;;;;12.75;7.53;;;18.30;99.90;;;;;;5063878;28;20056;-62
2023/06/19 08:30:45;;;;;;;11.00;7.10;;;18.40;99.90;;;;;;5051279;28;20040;-61
2023/06/19 08:33:14;;;;;;;14.07;7.28;;;18.50;99.90;;;;;;5062514;28;20048;-62
2023/06/19 08:35:42;;;;;;;17.27;7.90;;;18.70;99.90;;;;;;5060932;28;20036;-61
2023/06/19 08:38:10;;;;;;;12.90;6.68;;;18.80;99.90;;;;;;5056905;28;20056;-63
2023/06/19 08:40:37;;;;;;;11.15;6.03;;;18.90;99.90;;;;;;5061775;28;20044;-61
2023/06/19 08:43:05;;;;;;;10.38;5.93;;;19.00;99.90;;;;;;5063871;28;20055;-62
2023/06/19 08:45:33;;;;;;;10.68;5.20;;;19.00;99.90;;;;;;5070729;28;20052;-60
2023/06/19 08:48:03;;;;;;;11.95;5.70;;;19.10;99.90;;;;;;5055975;28;20064;-62
2023/06/19 08:50:37;;;;;;;13.90;5.05;;;19.10;99.90;;;;;;5057652;28;20040;-63
2023/06/19 08:53:05;;;;;;;12.30;5.40;;;19.10;99.90;;;;;;5069943;28;20040;-62
2023/06/19 08:55:34;;;;;;;7.50;4.55;;;19.10;99.90;;;;;;5053376;28;20045;-60
2023/06/19 08:58:02;;;;;;;9.20;4.30;;;19.10;99.90;;;;;;5056069;28;20048;-61
2023/06/19 09:00:30;;;;;;;7.68;4.35;;;19.20;99.90;;;;;;5060456;28;20289;-65
2023/06/19 09:03:02;;;;;;;11.13;4.93;;;19.30;99.90;;;;;;5063576;28;20045;-62
2023/06/19 09:05:49;;;;;;;9.85;4.78;;;19.40;99.90;;;;;;5067893;28;20049;-62
2023/06/19 09:08:22;;;;;;;9.70;4.78;;;19.50;99.90;;;;;;5050413;28;20059;-60
2023/06/19 09:11:03;;;;;;;14.48;4.60;;;19.50;99.90;;;;;;5052025;28;20048;-61
2023/06/19 09:13:32;;;;;;;9.27;4.78;;;19.80;99.90;;;;;;5073953;28;20051;-70
2023/06/19 09:16:04;;;;;;;11.90;5.15;;;19.60;99.90;;;;;;5041524;28;20060;-69
2023/06/19 09:18:47;;;;;;;11.43;4.18;;;19.60;99.90;;;;;;5057061;28;20395;-67
2023/06/19 09:21:21;;;;;;;9.40;4.55;;;19.70;99.90;;;;;;5061512;28;20400;-62
2023/06/19 09:23:51;;;;;;;9.45;3.97;;;19.80;99.90;;;;;;5056947;28;20396;-65
2023/06/19 09:26:26;;;;;;;12.48;4.65;;;20.00;99.90;;;;;;5050526;28;20438;-68
2023/06/19 09:28:55;;;;;;;10.45;4.20;;;20.20;99.90;;;;;;5061885;28;20056;-61
2023/06/19 09:31:33;;;;;;;5.85;2.90;;;20.40;99.90;;;;;;5055451;28;20498;-65
2023/06/19 09:34:01;;;;;;;9.43;3.55;;;20.40;99.90;;;;;;5064819;28;20367;-64
2023/06/19 09:36:32;;;;;;;9.20;3.25;;;20.40;99.90;;;;;;5051664;28;20048;-71
2023/06/19 09:39:01;;;;;;;9.68;3.80;;;20.40;99.90;;;;;;5059162;28;20052;-73
2023/06/19 09:41:30;;;;;;;8.40;3.72;;;20.40;99.90;;;;;;5063083;28;20123;-69
2023/06/19 09:43:59;;;;;;;7.87;3.43;;;20.40;99.90;;;;;;5067822;28;20051;-71
2023/06/19 09:46:33;;;;;;;7.00;3.20;;;20.40;99.90;;;;;;5056584;28;20047;-70
2023/06/19 09:49:04;;;;;;;6.85;3.30;;;20.50;99.90;;;;;;5058170;28;20049;-69
2023/06/19 09:51:36;;;;;;;9.60;3.78;;;20.50;99.90;;;;;;5060929;28;20051;-71
2023/06/19 09:54:06;;;;;;;7.03;3.25;;;20.30;99.90;;;;;;5059542;28;20052;-67
2023/06/19 09:56:34;;;;;;;9.52;3.92;;;20.40;99.90;;;;;;5054682;28;20049;-62
2023/06/19 09:59:03;;;;;;;7.10;3.67;;;20.40;99.90;;;;;;5055209;28;20045;-61
2023/06/19 10:01:32;;;;;;;5.50;3.23;;;20.60;99.90;;;;;;5063328;28;20056;-68
2023/06/19 10:04:08;;;;;;;5.65;3.28;;;20.70;99.90;;;;;;5067883;28;20056;-69
2023/06/19 10:06:44;;;;;;;9.80;3.20;;;20.80;99.90;;;;;;5057645;28;20051;-67
2023/06/19 10:09:14;;;;;;;6.00;2.90;;;20.90;99.90;;;;;;5063349;28;20048;-66
2023/06/19 10:11:53;;;;;;;9.07;3.40;;;21.00;99.90;;;;;;5062009;28;20048;-64
2023/06/19 10:14:22;;;;;;;5.78;3.50;;;21.20;99.90;;;;;;5060520;28;20048;-67
2023/06/19 10:16:50;;;;;;;5.40;2.67;;;21.30;99.90;;;;;;5057367;28;20473;-62
2023/06/19 10:19:21;;;;;;;6.75;3.08;;;21.50;99.90;;;;;;5052698;28;20041;-62
2023/06/19 10:21:52;;;;;;;6.47;3.30;;;21.70;99.90;;;;;;5059165;28;20056;-65
2023/06/19 10:24:20;;;;;;;5.40;2.50;;;21.90;99.90;;;;;;5057315;28;20041;-62
2023/06/19 10:27:00;;;;;;;5.03;2.40;;;22.00;99.90;;;;;;5046995;28;20041;-62
2023/06/19 10:29:41;;;;;;;5.13;3.10;;;22.20;99.90;;;;;;5048537;28;20056;-62
2023/06/19 10:32:29;;;;;;;8.48;3.42;;;22.30;99.90;;;;;;5055610;28;20063;-61
2023/06/19 10:34:56;;;;;;;5.57;2.70;;;22.40;99.90;;;;;;5070578;28;20411;-62
2023/06/19 10:37:44;;;;;;;5.93;2.90;;;22.40;99.90;;;;;;5065497;28;20063;-64
2023/06/19 10:40:12;;;;;;;4.00;2.42;;;22.50;99.90;;;;;;5053547;28;20045;-60
2023/06/19 10:42:41;;;;;;;6.97;2.67;;;22.60;99.90;;;;;;5054386;28;20049;-62
2023/06/19 10:45:12;;;;;;;7.50;2.55;;;22.70;99.90;;;;;;5066898;28;20063;-64
2023/06/19 10:47:40;;;;;;;8.07;2.70;;;23.00;99.90;;;;;;5050981;28;20056;-62
2023/06/19 10:50:15;;;;;;;4.85;2.33;;;23.20;99.90;;;;;;5055428;28;20056;-61
2023/06/19 10:52:45;;;;;;;5.63;2.58;;;23.30;99.90;;;;;;5055516;28;20056;-60
2023/06/19 10:55:12;;;;;;;6.03;2.75;;;23.50;99.90;;;;;;5055959;28;20404;-60
2023/06/19 10:57:44;;;;;;;7.43;2.83;;;23.60;99.90;;;;;;5062738;28;20513;-61
2023/06/19 11:00:26;;;;;;;8.02;3.03;;;23.80;99.90;;;;;;5051597;28;20052;-71
2023/06/19 11:02:55;;;;;;;6.85;2.75;;;24.00;99.90;;;;;;5060843;28;20425;-68
2023/06/19 11:05:28;;;;;;;3.47;2.50;;;24.00;99.90;;;;;;5065144;28;20040;-62
2023/06/19 11:07:59;;;;;;;8.70;3.13;;;23.80;99.90;;;;;;5059802;28;20072;-60
2023/06/19 11:10:28;;;;;;;6.80;2.60;;;23.80;99.90;;;;;;5056054;28;20500;-61
2023/06/19 11:12:58;;;;;;;6.05;2.53;;;23.70;99.90;;;;;;5064088;28;20048;-61
2023/06/19 11:15:34;;;;;;;7.10;2.88;;;23.90;99.90;;;;;;5047278;28;20043;-60
2023/06/19 11:18:02;;;;;;;5.50;2.80;;;24.00;99.90;;;;;;5052052;28;20052;-60
2023/06/19 11:20:31;;;;;;;3.13;2.40;;;24.00;99.90;;;;;;5048133;28;20068;-61
2023/06/19 11:23:00;;;;;;;4.88;2.63;;;24.10;99.90;;;;;;5049694;28;20495;-60
2023/06/19 11:25:38;;;;;;;12.00;3.47;;;24.10;99.90;;;;;;5046203;28;20992;-71
2023/06/19 11:28:17;;;;;;;4.75;2.88;;;24.20;99.90;;;;;;5057426;28;20039;-62
2023/06/19 11:30:47;;;;;;;6.72;2.88;;;24.20;99.90;;;;;;5045697;28;20064;-60
2023/06/19 11:33:24;;;;;;;;;;;24.30;99.90;;;;;;5058120;28;20056;-64
2023/06/19 11:35:54;;;;;;;10.40;2.33;;;24.20;99.90;;;;;;5055489;28;20268;-60
2023/06/19 11:38:25;;;;;;;5.72;2.53;;;24.30;99.50;;;;;;5063183;28;20055;-59
2023/06/19 11:40:56;;;;;;;5.93;2.20;;;24.40;98.60;;;;;;5056635;28;20048;-60
2023/06/19 11:43:25;;;;;;;12.32;3.10;;;24.50;99.40;;;;;;5062377;28;20052;-65
2023/06/19 11:45:59;;;;;;;7.70;2.88;;;24.70;98.80;;;;;;5049964;28;20493;-60
2023/06/19 11:48:27;;;;;;;8.10;2.95;;;24.90;99.30;;;;;;5060085;28;20051;-60
2023/06/19 11:50:55;;;;;;;7.88;3.30;;;25.20;99.40;;;;;;5060582;28;20104;-61
2023/06/19 11:53:24;;;;;;;5.85;3.03;;;25.50;99.30;;;;;;5059144;28;20498;-61
2023/06/19 11:55:52;;;;;;;7.93;3.47;;;25.80;98.40;;;;;;5038861;28;20383;-60
2023/06/19 11:58:20;;;;;;;11.13;3.13;;;25.90;97.90;;;;;;5041831;28;20051;-62
2023/06/19 12:00:49;;;;;;;11.38;3.92;;;25.70;97.70;;;;;;5068953;28;20053;-60
2023/06/19 12:03:17;;;;;;;7.50;3.42;;;25.50;98.00;;;;;;5073287;28;20439;-60
2023/06/19 12:05:45;;;;;;;10.45;3.80;;;25.20;98.70;;;;;;5064319;28;20045;-61
2023/06/19 12:08:13;;;;;;;6.45;3.80;;;25.10;99.30;;;;;;5057354;28;20047;-61
2023/06/19 12:10:40;;;;;;;9.32;3.92;;;24.90;99.20;;;;;;5059037;28;20037;-62
2023/06/19 12:13:08;;;;;;;12.05;3.80;;;24.70;98.70;;;;;;5058092;28;20318;-62
2023/06/19 12:15:36;;;;;;;5.53;2.90;;;24.40;99.10;;;;;;5045473;28;20053;-61
2023/06/19 12:18:06;;;;;;;6.82;2.83;;;24.20;98.70;;;;;;5055213;28;20047;-60
2023/06/19 12:20:34;;;;;;;10.05;3.13;;;24.00;99.20;;;;;;5059818;28;20064;-63
2023/06/19 12:23:02;;;;;;;5.88;2.65;;;23.90;99.00;;;;;;5054081;28;20049;-66
2023/06/19 12:25:30;;;;;;;6.85;3.10;;;23.80;99.60;;;;;;5048314;28;20055;-70
2023/06/19 12:27:58;;;;;;;8.15;3.83;;;23.80;99.90;;;;;;5053956;28;20053;-67
2023/06/19 12:30:25;;;;;;;7.07;3.50;;;23.70;99.90;;;;;;5064121;28;20044;-60
2023/06/19 12:32:53;;;;;;;8.07;3.63;;;23.80;99.90;;;;;;5066332;28;20067;-67
2023/06/19 12:35:22;;;;;;;7.68;3.45;;;23.90;99.90;;;;;;5056778;28;20048;-61
2023/06/19 12:37:50;;;;;;;9.63;4.10;;;23.90;99.90;;;;;;5046566;28;20547;-69
2023/06/19 12:40:18;;;;;;;11.10;3.75;;;23.80;99.60;;;;;;5064860;28;20056;-71
2023/06/19 12:42:46;;;;;;;7.18;3.58;;;23.60;99.60;;;;;;5059735;28;20052;-60
2023/06/19 12:45:14;;;;;;;5.70;3.55;;;23.50;99.90;;;;;;5064915;28;20507;-66
2023/06/19 12:47:41;;;;;;;14.25;3.60;;;23.60;99.90;;;;;;5050359;28;20053;-60